Guinda, California
Current Conditions -  °F | °C
As of 3:53 PM on Monday 20 Oct 2014 (Local Time) from KSMF Reporting Station
Broken Clouds Broken Clouds  
Wind Chill: 22°   Ceiling: 5500
Heat Index: 22°   Visibility: 10mi
Dew Point:   Wind: 14mph
Humidity: 44%   Direction: 220°SW
Pressure: 29.9"   Gusts: NA
Location:  38.83°N, 122.2°W
Report Text: KSMF 202253Z 22012KT 10SM SCT042 BKN055 22/09 A2990 RMK AO2 RAB12E22 SLP124 P0000 T02220094
Loading
Personal Weather Stations






























Interactive Weather Map
Tropical Storm Tracking
New forecast layout! Learn more

10-Day Weather Forecast

Advertisements
Track Severe Weather on mobile